Airfield :
LOGIN :

Register | Disclaimer

   EN    FR    IT 

 










Legend :    VFR   Marginal VFR   IFR   Intensive IFR   Very Intensive IFR
Visi :
Ceiling :
>= 8 km
>= 3000ft
5 to 8 km
1000 to 3000 ft
1500m to 5 km
500 to 1000 ft
800 to 1500m
200 to 500 ft
< 800m
< 200 ft
Symbols :   Thunderstorms  Fog  Heavy snow  Heavy precipitations  Wind > 20 kt
SIGMETs :     Misc.  Thunderstorms  Icing  Turbulence  Mountain Waves  Volcanic Ashes







- Airport Elevation : 32 ft
- IATA code : LKZ


EGUL - RAF Lakenheath

CURRENT METAR :
  • 102356Z AUTO 00000KT 9999 OVC032 04/02 A3032 RMK AO2 SLP271 T00400019 10041 20017 400770017 50001 $

EXPIRED METARs :
  • 102311Z AUTO 00000KT 9999 OVC030 04/02 A3032 RMK AO2 SLP271 $
  • 102256Z AUTO 00000KT 9999 OVC028 04/02 A3032 RMK AO2 SLPNO T00360018 $
  • 102226Z AUTO 00000KT 9999 OVC029 04/02 A3032 RMK AO2 CIG 028 RWY06 SLP271 $
  • 102156Z AUTO 00000KT 9999 OVC030 04/02 A3032 RMK AO2 SLP271 T00350015 $

TAF AMD TAF EGUL
Valid from the 10 at 23:00 until the 12 at 02:00 UTC


102317Z 1023/1202 33006KT 8000 BR BKN035 620353 QNH3028INS
BECMG 1101/1102 16006KT 5000 BR SCT030 SCT080 QNH3029INS
TEMPO 1103/1107 3200 BR
BECMG 1107/1108 16006KT 5000 BR SCT030 QNH3029INS
BECMG 1109/1110 16006KT 9999 NSW SCT030 SCT080 QNH3022INS
BECMG 1115/1116 16009KT 9999 SCT030 BKN050 620501 QNH3021INS TX06/1113Z TN01/1106Z
No reported NOTAMs for that airfield.



MET'MAP, your aeronautical weather chart ! - Copyright ORBIFLY December 2007 - Disclaimer

ORBIFLY MET'MAP TEAM :

Programming & Development : Alexandra Zaïnal
Concept & Development : Baudouin d'Aumeries
Co-Development & Prog : Marc-Olivier Méhu
Technical & hardware support : Manuel Goepfert

Contact : metmap@orbifly.com




SOURCES & CREDITS :

   NOAA